createdAt,value
2017-09-25T00:01:46.711Z,15.03
2017-09-25T00:04:14.533Z,15.04
2017-09-25T00:06:42.411Z,15.05
2017-09-25T00:09:10.247Z,15.05
2017-09-25T00:11:38.127Z,15.05
2017-09-25T00:14:05.956Z,15.04
2017-09-25T00:16:33.845Z,15.05
2017-09-25T00:19:01.656Z,15.04
2017-09-25T00:21:29.551Z,15.03
2017-09-25T00:23:57.272Z,15.03
2017-09-25T00:26:25.169Z,15.04
2017-09-25T00:28:52.972Z,15.05
2017-09-25T00:31:20.825Z,15.06
2017-09-25T00:33:48.658Z,15.06
2017-09-25T00:36:16.597Z,15.07
2017-09-25T00:38:44.445Z,15.07
2017-09-25T00:41:12.374Z,15.06
2017-09-25T00:43:40.199Z,15.06
2017-09-25T00:46:08.075Z,15.04
2017-09-25T00:48:35.949Z,15.04
2017-09-25T00:51:03.847Z,15.04
2017-09-25T00:56:33.817Z,15.03
2017-09-25T00:59:01.710Z,15.03
2017-09-25T01:01:41.428Z,15.01
2017-09-25T01:04:20.969Z,14.97
2017-09-25T01:06:48.831Z,14.92
2017-09-25T01:09:16.704Z,14.84
2017-09-25T01:11:44.621Z,14.78
2017-09-25T01:14:12.485Z,14.73
2017-09-25T01:16:40.349Z,14.72
2017-09-25T01:19:08.191Z,14.71
2017-09-25T01:21:36.070Z,14.73
2017-09-25T01:24:03.905Z,14.77
2017-09-25T01:26:31.772Z,14.79
2017-09-25T01:28:59.639Z,14.78
2017-09-25T01:31:27.464Z,14.77
2017-09-25T01:33:55.360Z,14.73
2017-09-25T01:36:23.170Z,14.69
2017-09-25T01:38:51.034Z,14.66
2017-09-25T01:41:18.949Z,14.63
2017-09-25T01:43:46.818Z,14.62
2017-09-25T01:46:14.647Z,14.65
2017-09-25T01:48:42.513Z,14.66
2017-09-25T01:51:10.370Z,14.68
2017-09-25T01:53:38.245Z,14.68
2017-09-25T01:56:06.095Z,14.68
2017-09-25T01:58:33.952Z,14.66
2017-09-25T02:01:02.531Z,14.64
2017-09-25T02:03:30.431Z,14.60
2017-09-25T02:05:58.303Z,14.55
2017-09-25T02:08:26.175Z,14.50
2017-09-25T02:10:54.035Z,14.43
2017-09-25T02:13:21.952Z,14.38
2017-09-25T02:15:49.767Z,14.33
2017-09-25T02:18:17.642Z,14.27
2017-09-25T02:20:45.468Z,14.23
2017-09-25T02:23:13.350Z,14.19
2017-09-25T02:25:41.179Z,14.16
2017-09-25T02:28:09.018Z,14.11
2017-09-25T02:30:36.756Z,14.00
2017-09-25T02:33:04.687Z,13.96
2017-09-25T02:35:32.558Z,13.87
2017-09-25T02:38:00.493Z,13.81
2017-09-25T02:40:28.243Z,13.76
2017-09-25T02:42:56.057Z,13.69
2017-09-25T02:45:23.877Z,13.65
2017-09-25T02:47:51.744Z,13.61
2017-09-25T02:50:19.556Z,13.57
2017-09-25T02:52:47.433Z,13.50
2017-09-25T02:55:15.254Z,13.38
2017-09-25T02:57:43.107Z,13.28
2017-09-25T03:00:10.953Z,13.17
2017-09-25T03:02:38.806Z,13.10
2017-09-25T03:05:06.643Z,13.01
2017-09-25T03:07:34.499Z,12.98
2017-09-25T03:10:02.333Z,12.99
2017-09-25T03:12:30.263Z,12.97
2017-09-25T03:14:58.104Z,12.91
2017-09-25T03:17:25.962Z,12.87
2017-09-25T03:19:53.844Z,12.81
2017-09-25T03:22:21.650Z,12.71
2017-09-25T03:24:49.533Z,12.69
2017-09-25T03:27:17.298Z,12.75
2017-09-25T03:29:45.180Z,12.69
2017-09-25T03:32:13.035Z,12.63
2017-09-25T03:34:40.897Z,12.59
2017-09-25T03:37:08.736Z,12.56
2017-09-25T03:39:36.597Z,12.47
2017-09-25T03:42:04.668Z,12.30
2017-09-25T03:44:32.543Z,12.21
2017-09-25T03:47:00.351Z,12.13
2017-09-25T03:49:28.211Z,12.09
2017-09-25T03:51:56.039Z,12.02
2017-09-25T03:54:23.906Z,11.97
2017-09-25T03:56:51.725Z,11.91
2017-09-25T03:59:19.600Z,11.85
2017-09-25T04:01:47.422Z,11.82
2017-09-25T04:04:15.279Z,11.81
2017-09-25T04:06:43.119Z,11.79
2017-09-25T04:09:11.009Z,11.78
2017-09-25T04:11:38.851Z,11.81
2017-09-25T04:14:06.741Z,11.81
2017-09-25T04:16:34.573Z,11.80
2017-09-25T04:19:02.451Z,11.79
2017-09-25T04:21:30.289Z,11.74
2017-09-25T04:23:58.086Z,11.71
2017-09-25T04:26:25.931Z,11.68
2017-09-25T04:28:53.814Z,11.61
2017-09-25T04:31:21.630Z,11.54
2017-09-25T04:33:49.499Z,11.51
2017-09-25T04:36:17.362Z,11.51
2017-09-25T04:38:45.256Z,11.50
2017-09-25T04:41:13.134Z,11.48
2017-09-25T04:43:41.039Z,11.48
2017-09-25T04:46:08.858Z,11.49
2017-09-25T04:48:36.756Z,11.47
2017-09-25T04:51:04.591Z,11.44
2017-09-25T04:53:32.519Z,11.40
2017-09-25T04:56:00.348Z,11.36
2017-09-25T04:58:28.244Z,11.30
2017-09-25T05:00:56.072Z,11.27
2017-09-25T05:03:23.921Z,11.26
2017-09-25T05:05:51.807Z,11.29
2017-09-25T05:08:19.615Z,11.29
2017-09-25T05:10:47.487Z,11.28
2017-09-25T05:13:15.295Z,11.27
2017-09-25T05:15:43.161Z,11.28
2017-09-25T05:18:11.016Z,11.34
2017-09-25T05:20:38.922Z,11.39
2017-09-25T05:23:06.749Z,11.41
2017-09-25T05:25:34.627Z,11.45
2017-09-25T05:28:02.471Z,11.49
2017-09-25T05:30:30.365Z,11.55
2017-09-25T05:32:58.194Z,11.63
2017-09-25T05:35:26.106Z,11.72
2017-09-25T05:37:53.927Z,11.83
2017-09-25T05:40:21.795Z,11.92
2017-09-25T05:42:49.650Z,12.01
2017-09-25T05:45:17.433Z,12.09
2017-09-25T05:47:45.253Z,12.19
2017-09-25T05:50:13.164Z,12.29
2017-09-25T05:52:41.016Z,12.37
2017-09-25T05:55:08.902Z,12.46
2017-09-25T05:57:36.735Z,12.58
2017-09-25T06:00:04.659Z,12.68
2017-09-25T06:02:32.513Z,12.80
2017-09-25T06:05:00.474Z,12.92
2017-09-25T06:07:28.306Z,13.04
2017-09-25T06:09:56.135Z,13.15
2017-09-25T06:12:23.848Z,13.27
2017-09-25T06:14:51.686Z,13.37
2017-09-25T06:17:19.441Z,13.48
2017-09-25T06:19:47.271Z,13.59
2017-09-25T06:22:15.025Z,13.70
2017-09-25T06:24:42.801Z,13.83
2017-09-25T06:27:10.562Z,13.98
2017-09-25T06:29:38.427Z,14.13
2017-09-25T06:32:06.166Z,14.26
2017-09-25T06:34:33.933Z,14.36
2017-09-25T06:37:01.687Z,14.46
2017-09-25T06:39:29.465Z,14.54
2017-09-25T06:41:57.218Z,14.61
2017-09-25T06:44:24.952Z,14.71
2017-09-25T06:46:52.750Z,14.81
2017-09-25T06:49:20.495Z,14.89
2017-09-25T06:51:48.276Z,14.98
2017-09-25T06:54:16.021Z,15.08
2017-09-25T06:56:43.817Z,15.14
2017-09-25T06:59:11.580Z,15.19
2017-09-25T07:01:39.364Z,15.25
2017-09-25T07:04:07.084Z,15.31
2017-09-25T07:06:34.861Z,15.31
2017-09-25T07:09:02.595Z,15.37
2017-09-25T07:11:30.363Z,15.48
2017-09-25T07:13:58.111Z,15.65
2017-09-25T07:16:25.926Z,15.88
2017-09-25T07:18:53.702Z,15.96
2017-09-25T07:21:21.508Z,16.10
2017-09-25T07:23:49.286Z,16.17
2017-09-25T07:26:17.130Z,16.26
2017-09-25T07:28:44.891Z,16.31
2017-09-25T07:31:12.698Z,16.31
2017-09-25T07:33:40.485Z,16.31
2017-09-25T07:36:08.267Z,16.32
2017-09-25T07:38:35.988Z,16.42
2017-09-25T07:41:03.784Z,16.54
2017-09-25T07:43:31.515Z,16.70
2017-09-25T07:45:59.315Z,16.73
2017-09-25T07:48:27.100Z,16.69
2017-09-25T07:50:54.919Z,16.51
2017-09-25T07:53:22.712Z,16.33
2017-09-25T07:55:50.483Z,16.14
2017-09-25T07:58:18.215Z,15.95
2017-09-25T08:00:46.035Z,15.83
2017-09-25T08:03:13.810Z,15.76
2017-09-25T08:05:41.622Z,15.69
2017-09-25T08:08:09.379Z,15.68
2017-09-25T08:10:37.176Z,15.70
2017-09-25T08:13:04.943Z,15.83
2017-09-25T08:15:32.724Z,16.05
2017-09-25T08:18:00.451Z,16.38
2017-09-25T08:23:19.938Z,17.06
2017-09-25T08:25:47.744Z,17.17
2017-09-25T08:28:15.500Z,17.27
2017-09-25T08:30:43.291Z,17.39
2017-09-25T08:33:11.036Z,17.44
2017-09-25T08:38:16.648Z,17.55
2017-09-25T08:40:44.427Z,17.53
2017-09-25T08:43:12.170Z,17.70
2017-09-25T08:45:39.973Z,17.97
2017-09-25T08:48:13.301Z,18.20
2017-09-25T08:50:41.098Z,18.35
2017-09-25T08:53:08.839Z,18.61
2017-09-25T08:55:36.686Z,19.09
2017-09-25T08:58:04.500Z,19.40
2017-09-25T09:00:32.256Z,19.48
2017-09-25T09:03:04.200Z,19.49
2017-09-25T09:05:32.204Z,19.47
2017-09-25T09:08:00.236Z,19.19
2017-09-25T09:10:28.005Z,19.00
2017-09-25T09:12:55.801Z,18.98
2017-09-25T09:15:23.656Z,18.56
2017-09-25T09:17:51.502Z,18.34
2017-09-25T09:20:19.347Z,18.77
2017-09-25T09:22:47.146Z,19.28
2017-09-25T09:25:14.893Z,19.60
2017-09-25T09:27:42.691Z,19.67
2017-09-25T09:30:10.533Z,19.62
2017-09-25T09:32:38.417Z,19.49
2017-09-25T09:35:06.189Z,19.29
2017-09-25T09:37:34.007Z,19.21
2017-09-25T09:40:01.733Z,19.33
2017-09-25T09:42:29.644Z,19.26
2017-09-25T09:44:57.406Z,19.11
2017-09-25T09:47:25.191Z,18.80
2017-09-25T09:49:52.939Z,18.89
2017-09-25T09:52:20.766Z,19.10
2017-09-25T09:54:48.489Z,19.06
2017-09-25T09:57:16.848Z,19.10
2017-09-25T09:59:47.662Z,19.14
2017-09-25T10:02:15.506Z,18.83
2017-09-25T10:04:43.903Z,18.82
2017-09-25T10:07:11.805Z,19.13
2017-09-25T10:09:42.337Z,19.58
2017-09-25T10:12:10.542Z,19.77
2017-09-25T10:14:39.218Z,19.64
2017-09-25T10:17:07.130Z,19.41
2017-09-25T10:19:36.132Z,19.28
2017-09-25T10:22:05.810Z,19.12
2017-09-25T10:24:35.401Z,18.87
2017-09-25T10:27:04.721Z,18.85
2017-09-25T10:29:35.211Z,19.03
2017-09-25T10:32:05.901Z,19.13
2017-09-25T10:34:35.336Z,19.01
2017-09-25T10:37:04.234Z,19.19
2017-09-25T10:39:33.258Z,19.62
2017-09-25T10:42:02.220Z,19.88
2017-09-25T10:44:31.448Z,20.10
2017-09-25T10:47:00.789Z,19.68
2017-09-25T10:49:29.483Z,19.52
2017-09-25T10:51:59.838Z,19.75
2017-09-25T10:54:29.441Z,20.00
2017-09-25T10:57:01.543Z,20.35
2017-09-25T10:59:30.646Z,20.33
2017-09-25T11:02:00.158Z,20.13
2017-09-25T11:04:30.868Z,19.74
2017-09-25T11:06:58.773Z,19.44
2017-09-25T11:09:29.458Z,19.31
2017-09-25T11:11:59.462Z,19.39
2017-09-25T11:14:30.890Z,19.81
2017-09-25T11:17:02.882Z,19.89
2017-09-25T11:19:32.208Z,19.88
2017-09-25T11:22:00.960Z,19.82
2017-09-25T11:24:30.787Z,19.51
2017-09-25T11:27:01.922Z,19.15
2017-09-25T11:29:30.375Z,18.86
2017-09-25T11:32:00.467Z,18.76
2017-09-25T11:34:30.431Z,18.86
2017-09-25T11:36:58.931Z,19.37
2017-09-25T11:39:33.363Z,19.68
2017-09-25T11:42:01.659Z,19.89
2017-09-25T11:44:32.503Z,19.91
2017-09-25T11:47:02.540Z,19.86
2017-09-25T11:49:31.450Z,19.62
2017-09-25T11:52:00.366Z,19.65
2017-09-25T11:54:29.902Z,19.53
2017-09-25T11:56:59.009Z,19.44
2017-09-25T11:59:26.899Z,19.29
2017-09-25T12:01:56.406Z,19.19
2017-09-25T12:04:26.413Z,19.17
2017-09-25T12:06:55.584Z,19.17
2017-09-25T12:09:25.657Z,19.02
2017-09-25T12:11:54.513Z,18.87
2017-09-25T12:14:23.313Z,18.60
2017-09-25T12:16:52.434Z,18.45
2017-09-25T12:19:21.856Z,18.16
2017-09-25T12:21:54.623Z,17.77
2017-09-25T12:24:23.564Z,17.30
2017-09-25T12:26:53.101Z,16.65
2017-09-25T12:29:23.791Z,16.22
2017-09-25T12:31:54.123Z,15.99
2017-09-25T12:34:22.049Z,15.91
2017-09-25T12:36:52.273Z,15.87
2017-09-25T12:39:21.986Z,15.94
2017-09-25T12:41:51.466Z,16.01
2017-09-25T12:44:20.172Z,16.24
2017-09-25T12:46:49.678Z,16.49
2017-09-25T12:49:21.242Z,16.71
2017-09-25T12:51:55.620Z,17.08
2017-09-25T12:54:40.356Z,17.54
2017-09-25T12:59:51.029Z,18.39
2017-09-25T13:02:20.743Z,18.36
2017-09-25T13:04:48.938Z,18.07
2017-09-25T13:07:17.460Z,17.84
2017-09-25T13:09:45.668Z,17.73
2017-09-25T13:12:16.104Z,17.82
2017-09-25T13:14:47.685Z,18.03
2017-09-25T13:17:15.568Z,18.27
2017-09-25T13:19:48.996Z,18.33
2017-09-25T13:22:17.675Z,18.21
2017-09-25T13:24:46.689Z,18.02
2017-09-25T13:27:15.319Z,17.80
2017-09-25T13:29:48.484Z,17.55
2017-09-25T13:32:21.936Z,17.37
2017-09-25T13:34:50.324Z,17.25
2017-09-25T13:37:20.063Z,17.16
2017-09-25T13:39:48.794Z,17.18
2017-09-25T13:42:19.623Z,17.26
2017-09-25T13:47:26.238Z,17.49
2017-09-25T13:49:55.083Z,17.64
2017-09-25T13:52:23.876Z,17.70
2017-09-25T13:54:55.388Z,17.80
2017-09-25T13:57:24.340Z,17.91
2017-09-25T14:02:27.145Z,18.17
2017-09-25T14:04:56.879Z,18.08
2017-09-25T14:07:26.788Z,18.05
2017-09-25T14:09:55.318Z,18.28
2017-09-25T14:12:24.613Z,18.36
2017-09-25T14:14:54.470Z,17.94
2017-09-25T14:20:01.894Z,17.91
2017-09-25T14:22:32.247Z,17.96
2017-09-25T14:30:54.560Z,17.60
2017-09-25T14:39:12.992Z,17.26
2017-09-25T14:47:40.830Z,16.94
2017-09-25T14:50:25.701Z,16.90
2017-09-25T15:01:51.765Z,16.91
2017-09-25T15:04:34.462Z,16.97
2017-09-25T15:07:22.635Z,16.92
2017-09-25T15:15:33.095Z,16.75
2017-09-25T15:37:25.937Z,16.29
2017-09-25T15:42:55.213Z,16.21
2017-09-25T15:56:25.506Z,15.87
2017-09-25T15:58:56.020Z,15.83
2017-09-25T16:01:24.247Z,15.82
2017-09-25T16:03:54.627Z,15.81
2017-09-25T16:06:27.003Z,15.77
2017-09-25T16:08:56.574Z,15.74
2017-09-25T16:11:25.639Z,15.72
2017-09-25T16:13:53.832Z,15.69
2017-09-25T16:16:23.704Z,15.65
2017-09-25T16:18:52.158Z,15.61
2017-09-25T16:21:23.552Z,15.61
2017-09-25T16:23:58.412Z,15.60
2017-09-25T16:26:27.154Z,15.55
2017-09-25T16:28:56.114Z,15.54
2017-09-25T16:31:26.626Z,15.45
2017-09-25T16:34:04.219Z,15.35
2017-09-25T16:36:40.573Z,15.27
2017-09-25T16:39:23.610Z,15.21
2017-09-25T16:41:53.770Z,15.14
2017-09-25T16:44:31.221Z,15.11
2017-09-25T16:49:43.262Z,15.05
2017-09-25T16:52:17.324Z,15.04
2017-09-25T17:00:22.434Z,14.95
2017-09-25T17:02:50.903Z,14.88
2017-09-25T17:05:19.779Z,14.81
2017-09-25T17:07:49.267Z,14.77
2017-09-25T17:10:18.234Z,14.75
2017-09-25T17:13:00.657Z,14.66
2017-09-25T17:15:29.507Z,14.55
2017-09-25T17:18:01.237Z,14.47
2017-09-25T17:20:29.412Z,14.45
2017-09-25T17:22:59.544Z,14.40
2017-09-25T17:25:30.236Z,14.37
2017-09-25T17:28:00.738Z,14.32
2017-09-25T17:30:28.763Z,14.32
2017-09-25T17:33:00.061Z,14.33
2017-09-25T17:35:30.503Z,14.33
2017-09-25T17:38:00.802Z,14.36
2017-09-25T17:40:30.621Z,14.37
2017-09-25T17:43:05.316Z,14.37
2017-09-25T17:45:33.562Z,14.36
2017-09-25T17:48:03.618Z,14.35
2017-09-25T17:50:35.745Z,14.36
2017-09-25T17:53:03.929Z,14.39
2017-09-25T17:55:31.696Z,14.39
2017-09-25T17:57:59.518Z,14.38
2017-09-25T18:00:27.318Z,14.36
2017-09-25T18:02:58.350Z,14.36
2017-09-25T18:05:26.196Z,14.38
2017-09-25T18:07:54.051Z,14.39
2017-09-25T18:10:21.834Z,14.39
2017-09-25T18:12:49.644Z,14.34
2017-09-25T18:15:17.565Z,14.33
2017-09-25T18:17:47.776Z,14.29
2017-09-25T18:20:15.663Z,14.29
2017-09-25T18:22:43.459Z,14.30
2017-09-25T18:25:11.208Z,14.31
2017-09-25T18:27:39.031Z,14.30
2017-09-25T18:30:06.837Z,14.30
2017-09-25T18:32:34.608Z,14.30
2017-09-25T18:35:02.440Z,14.32
2017-09-25T18:37:30.331Z,14.31
2017-09-25T18:39:58.205Z,14.28
2017-09-25T18:42:26.126Z,14.25
2017-09-25T18:44:53.962Z,14.23
2017-09-25T18:47:21.841Z,14.20
2017-09-25T18:49:49.671Z,14.19
2017-09-25T18:52:17.563Z,14.17
2017-09-25T18:54:45.425Z,14.18
2017-09-25T18:57:13.364Z,14.20
2017-09-25T18:59:41.208Z,14.22
2017-09-25T19:02:09.043Z,14.22
2017-09-25T19:04:36.963Z,14.23
2017-09-25T19:07:04.724Z,14.22
2017-09-25T19:09:32.651Z,14.28
2017-09-25T19:12:00.478Z,14.28
2017-09-25T19:14:28.335Z,14.29
2017-09-25T19:16:56.151Z,14.28
2017-09-25T19:19:24.074Z,14.27
2017-09-25T19:21:51.913Z,14.27
2017-09-25T19:24:20.062Z,14.24
2017-09-25T19:26:47.898Z,14.23
2017-09-25T19:29:15.774Z,14.22
2017-09-25T19:31:43.645Z,14.21
2017-09-25T19:34:11.544Z,14.20
2017-09-25T19:36:39.423Z,14.19
2017-09-25T19:39:07.250Z,14.18
2017-09-25T19:41:35.146Z,14.17
2017-09-25T19:44:03.065Z,14.19
2017-09-25T19:46:30.989Z,14.19
2017-09-25T19:49:10.713Z,14.18
2017-09-25T19:51:38.623Z,14.16
2017-09-25T19:54:08.510Z,14.16
2017-09-25T19:59:38.732Z,14.16
2017-09-25T20:02:06.640Z,14.15
2017-09-25T20:04:34.529Z,14.13
2017-09-25T20:07:12.087Z,14.13
2017-09-25T20:09:40.011Z,14.12
2017-09-25T20:12:07.908Z,14.11
2017-09-25T20:14:38.817Z,14.10
2017-09-25T20:17:17.292Z,14.10
2017-09-25T20:19:45.311Z,14.12
2017-09-25T20:22:13.169Z,14.10
2017-09-25T20:24:41.051Z,14.11
2017-09-25T20:27:08.917Z,14.10
2017-09-25T20:29:36.823Z,14.08
2017-09-25T20:32:04.653Z,14.10
2017-09-25T20:34:32.552Z,14.10
2017-09-25T20:37:00.515Z,14.07
2017-09-25T20:39:28.504Z,14.04
2017-09-25T20:41:58.759Z,14.03
2017-09-25T20:44:27.980Z,14.02
2017-09-25T20:46:55.826Z,13.99
2017-09-25T20:49:23.718Z,13.97
2017-09-25T20:51:51.569Z,13.92
2017-09-25T20:54:19.475Z,13.90
2017-09-25T20:56:47.352Z,13.86
2017-09-25T20:59:15.243Z,13.80
2017-09-25T21:01:43.073Z,13.70
2017-09-25T21:04:10.856Z,13.62
2017-09-25T21:06:38.695Z,13.50
2017-09-25T21:09:06.581Z,13.41
2017-09-25T21:11:34.431Z,13.37
2017-09-25T21:14:02.393Z,13.31
2017-09-25T21:16:30.250Z,13.24
2017-09-25T21:18:58.139Z,13.19
2017-09-25T21:21:25.933Z,13.14
2017-09-25T21:23:53.872Z,13.07
2017-09-25T21:26:22.595Z,13.06
2017-09-25T21:28:50.490Z,13.05
2017-09-25T21:31:18.349Z,13.05
2017-09-25T21:33:46.224Z,13.06
2017-09-25T21:36:14.071Z,13.09
2017-09-25T21:38:41.954Z,13.13
2017-09-25T21:41:09.890Z,13.16
2017-09-25T21:43:37.748Z,13.19
2017-09-25T21:46:05.624Z,13.25
2017-09-25T21:48:33.445Z,13.29
2017-09-25T21:51:01.328Z,13.33
2017-09-25T21:53:29.135Z,13.36
2017-09-25T21:55:57.038Z,13.40
2017-09-25T21:58:24.771Z,13.44
2017-09-25T22:00:52.662Z,13.47
2017-09-25T22:03:20.523Z,13.50
2017-09-25T22:05:48.411Z,13.51
2017-09-25T22:08:16.234Z,13.52
2017-09-25T22:10:44.093Z,13.51
2017-09-25T22:13:11.924Z,13.49
2017-09-25T22:15:39.794Z,13.49
2017-09-25T22:18:07.540Z,13.48
2017-09-25T22:20:35.425Z,13.48
2017-09-25T22:23:03.251Z,13.48
2017-09-25T22:25:31.125Z,13.50
2017-09-25T22:27:58.945Z,13.50
2017-09-25T22:30:26.843Z,13.50
2017-09-25T22:32:54.790Z,13.52
2017-09-25T22:35:22.701Z,13.50
2017-09-25T22:37:50.696Z,13.48
2017-09-25T22:40:18.638Z,13.47
2017-09-25T22:42:46.591Z,13.47
2017-09-25T22:45:14.529Z,13.47
2017-09-25T22:47:42.366Z,13.47
2017-09-25T22:50:10.272Z,13.50
2017-09-25T22:52:38.181Z,13.49
2017-09-25T22:55:06.102Z,13.50
2017-09-25T22:57:33.979Z,13.47
2017-09-25T23:00:01.918Z,13.47
2017-09-25T23:02:29.810Z,13.49
2017-09-25T23:08:05.846Z,13.47
2017-09-25T23:10:33.762Z,13.46
2017-09-25T23:13:01.654Z,13.44
2017-09-25T23:15:29.522Z,13.43
2017-09-25T23:17:57.413Z,13.44
2017-09-25T23:20:25.265Z,13.44
2017-09-25T23:22:53.107Z,13.44
2017-09-25T23:25:21.054Z,13.40
2017-09-25T23:27:48.927Z,13.42
2017-09-25T23:30:28.453Z,13.41
2017-09-25T23:32:56.322Z,13.40
2017-09-25T23:35:24.206Z,13.41
2017-09-25T23:37:52.019Z,13.46
2017-09-25T23:40:19.874Z,13.50
2017-09-25T23:42:47.755Z,13.52
2017-09-25T23:45:15.613Z,13.54
2017-09-25T23:47:43.435Z,13.57
2017-09-25T23:50:11.355Z,13.59
2017-09-25T23:52:39.181Z,13.62
2017-09-25T23:55:07.077Z,13.64
2017-09-25T23:57:34.898Z,13.66
